Historyczne dane pomiarowe

Dodano dane terminowe – wersja testowa.

Dane z okresu 1951-2019

Wersja bazy: 1.34 [2019-03-16, lista zmian], aktualizacja planowana na 2019-04-15

Dane meteo z obszaru Polski uzyskane na podstawie danych udostępnionych przez Instytut Meteorologii i Gospodarki Wodnej – Państwowy Instytut Badawczy.

 

Wybierz Datę:    

       

TemperaturaWilgotnośćWiatrCiśnienieOpadyŚniegCzas trwania zjawisk
 Stacja t tx tn tng RH VA  wxwx mslp ppp RRR   cm mm wxwxwxwxwxwxwx
1994-08-14 12.6 17.2 10.0 8.2 81.3- 6.7 8.0---- 1.4------------
1994-08-13 16.9 21.6 12.9 12.4 87.5- 8.0 7.7---- 3.1------------
1994-08-12 19.4 25.9 14.0 13.8 83.8- 6.0 2.3---- 0.0------------
1994-08-11 21.2 26.7 14.3 12.9 67.8- 5.3 2.7---- 0.0------------
1994-08-10 20.5 29.4 9.2 8.9 73.5- 5.7 1.0---- 0.0------------
1994-08-09 20.2 26.4 14.0 13.3 83.3- 7.0 0.7---- 0.0------------
1994-08-08 21.2 27.1 15.5 15.2 76.3- 4.7 1.3---- 0.0------------
1994-08-07 22.6 28.6 15.6 12.5 71.3- 3.7 1.3---- 0.0------------
1994-08-06 25.7 32.9 17.7 14.3 67.3- 3.0 2.3---- 0.0------------
1994-08-05 26.0 34.4 15.6 13.7 68.8- 2.3 1.3---- 0.0------------
1994-08-04 22.6 31.3 13.5 12.5 74.5- 2.0 0.7---- 0.0------------
1994-08-03 23.5 30.4 19.3 18.8 77.5- 3.7 2.3---- 0.0------------
1994-08-02 26.9 34.9 18.6 15.1 65.3- 4.7 2.3---- 0.0------------
1994-08-01 29.2 37.2 21.0 17.3 58.5- 4.0 3.0---- 0.0------------
1994-07-31 29.2 37.9 19.1 15.7 54.8- 2.7 1.7---- 0.0------------
1994-07-30 28.7 36.8 16.5 16.4 50.3- 1.3 1.0---- 0.0------------
1994-07-29 27.8 36.1 17.3 15.2 56.3- 2.0 0.7---- 0.0------------
1994-07-28 27.4 34.9 18.0 16.5 61.0- 3.0 0.7---- 0.0------------
1994-07-27 27.1 35.5 17.6 12.9 52.0- 2.7 0.3---- 0.0------------
1994-07-26 26.7 35.1 15.6 11.4 59.0- 1.0 0.7---- 0.0------------
1994-07-25 24.7 34.4 15.6 12.7 61.3- 1.3 1.3---- 0.0------------
1994-07-24 24.0 31.5 12.0 10.9 59.8- 1.0 1.0---- 0.0------------
1994-07-23 22.2 30.2 11.1 8.8 69.0- 2.0 1.0---- 0.0------------
1994-07-22 20.4 28.7 9.0 8.7 63.8- 1.7 3.3---- 0.0------------
1994-07-21 20.9 30.8 7.2 6.9 65.0- 1.0 1.7---- 0.0------------
1994-07-20 19.4 25.9 8.0 6.9 70.0- 0.7 1.3---- 0.0------------
1994-07-19 18.1 23.7 9.0 8.3 66.5- 3.0 3.0---- 0.0------------
1994-07-18 18.3 25.5 11.2 9.3 69.5- 3.7 3.3---- 0.0------------
1994-07-17 20.8 26.6 12.6 11.1 73.8- 5.7 2.0---- 0.0------------
1994-07-16 21.5 27.6 16.1 14.2 75.5- 5.7 2.3---- 0.0------------
1994-07-15 25.3 32.1 16.6 13.9 65.5- 4.0 2.3---- 0.0------------
1994-07-14 24.8 31.5 15.9 13.7 70.8- 6.0 1.3---- 0.0------------
1994-07-13 24.2 31.6 15.9 13.1 63.5- 2.7 2.7---- 0.0------------
1994-07-12 22.8 29.9 13.2 11.4 64.3- 3.3 3.7---- 0.0------------
1994-07-11 21.6 29.6 10.2 6.5 66.5- 1.3 2.0---- 0.0------------
1994-07-10 20.0 27.4 10.0 7.0 72.8- 2.3 2.7---- 0.0------------
1994-07-09 16.1 21.8 11.5 11.3 82.3- 2.0 2.7---- 0.3------------
1994-07-08 13.8 20.2 11.2 10.8 94.3- 7.7 2.3---- 3.4------------
1994-07-07 17.7 25.4 8.0 6.9 63.5- 5.7 1.3---- 0.2------------
1994-07-06 18.7 25.0 9.2 8.1 62.8- 2.3 1.0---- 0.0------------
1994-07-05 17.9 25.0 9.8 6.9 61.5- 3.0 2.0---- 0.0------------
1994-07-04 20.1 26.9 10.5 7.4 63.8- 1.7 1.7---- 0.0------------
1994-07-03 18.0 25.4 8.5 7.2 63.8- 1.7 1.7---- 0.0------------
1994-07-02 16.8 22.0 8.6 5.8 73.0- 1.7 1.0---- 0.0------------
1994-07-01 16.4 23.7 10.0 8.6 75.3- 3.0 1.0---- 0.0------------
1994-06-30 18.3 27.7 16.5 16.6 75.0- 4.7 4.0---- 0.0------------
1994-06-29 24.1 32.1 14.6 13.4 72.5- 3.3 1.3---- 20.5------------
1994-06-28 20.4 27.5 10.1 8.9 73.3- 1.0 0.7---- 0.0------------
1994-06-27 20.5 27.7 14.1 10.5 80.3- 5.0 1.7---- 0.0------------
1994-06-26 20.0 29.4 9.4 6.6 70.3- 1.7 3.0---- 0.0------------
1994-06-25 15.2 22.8 4.8 0.6 65.8- 1.0 2.7---- 0.0------------
1994-06-24 13.5 18.7 6.0 4.0 69.0- 3.3 3.0---- 0.0------------
1994-06-23 14.3 20.9 9.3 7.7 63.0- 4.3 11.7---- 0.0------------
1994-06-22 19.1 24.6 14.6 13.9 71.3- 5.7 2.3---- 1.0------------
1994-06-21 16.0 22.2 7.5 2.3 70.5- 3.0 1.0---- 0.4------------
1994-06-20 15.4 20.2 11.6 9.2 70.3- 3.7 5.0---- 0.0------------
1994-06-19 14.4 20.8 10.1 9.9 83.0- 7.7 3.3---- 1.0------------
1994-06-18 11.0 17.0 3.4 1.9 81.3- 7.0 1.3---- 4.9------------
1994-06-17 9.0 13.9 5.0 0.5 69.5- 4.0 5.7---- 0.6------------
1994-06-16 10.3 14.7 9.6 5.0 82.0- 6.3 6.0---- 4.7------------
279.0 ms

 

Źródłem pochodzenia danych jest Instytut Meteorologii i Gospodarki Wodnej – Państwowy Instytut Badawczy. Dane Instytutu Meteorologii i Gospodarki Wodnej – Państwowego Instytutu Badawczego zostały przetworzone.

Dane źródłowe można odnaleźć na stronie https://dane.imgw.pl